createdAt,value
2018-05-09T00:00:52.589Z,4.57
2018-05-09T00:03:20.142Z,4.33
2018-05-09T00:05:47.727Z,4.90
2018-05-09T00:08:16.075Z,4.80
2018-05-09T00:10:43.630Z,5.40
2018-05-09T00:13:11.212Z,5.43
2018-05-09T00:15:38.767Z,5.37
2018-05-09T00:18:06.374Z,4.87
2018-05-09T00:20:33.934Z,5.17
2018-05-09T00:23:01.542Z,5.20
2018-05-09T00:25:29.130Z,6.10
2018-05-09T00:27:57.511Z,5.17
2018-05-09T00:30:25.862Z,5.20
2018-05-09T00:32:53.491Z,5.50
2018-05-09T00:35:21.099Z,5.97
2018-05-09T00:37:49.421Z,5.30
2018-05-09T00:40:17.164Z,5.43
2018-05-09T00:42:44.747Z,4.87
2018-05-09T00:45:12.331Z,5.57
2018-05-09T00:47:39.920Z,5.63
2018-05-09T00:50:08.306Z,5.80
2018-05-09T00:52:36.666Z,5.60
2018-05-09T00:55:04.254Z,5.20
2018-05-09T00:57:32.601Z,5.40
2018-05-09T01:00:00.158Z,5.50
2018-05-09T01:02:27.739Z,6.20
2018-05-09T01:04:55.329Z,5.40
2018-05-09T01:07:22.926Z,6.00
2018-05-09T01:09:51.278Z,5.97
2018-05-09T01:12:18.941Z,6.10
2018-05-09T01:14:46.474Z,6.07
2018-05-09T01:17:14.063Z,5.70
2018-05-09T01:19:41.617Z,5.80
2018-05-09T01:22:09.203Z,6.17
2018-05-09T01:24:37.547Z,5.73
2018-05-09T01:27:05.147Z,5.90
2018-05-09T01:29:33.498Z,6.10
2018-05-09T01:32:01.053Z,5.90
2018-05-09T01:34:28.667Z,5.83
2018-05-09T01:36:56.228Z,6.20
2018-05-09T01:39:23.794Z,5.90
2018-05-09T01:41:51.410Z,6.60
2018-05-09T01:44:18.999Z,6.10
2018-05-09T01:46:46.562Z,5.70
2018-05-09T01:49:14.263Z,6.20
2018-05-09T01:51:41.782Z,5.90
2018-05-09T01:54:09.367Z,5.97
2018-05-09T01:56:36.946Z,6.30
2018-05-09T01:59:04.510Z,6.20
2018-05-09T02:01:32.118Z,6.20
2018-05-09T02:04:00.473Z,5.50
2018-05-09T02:06:28.842Z,6.17
2018-05-09T02:08:56.405Z,6.30
2018-05-09T02:11:24.000Z,6.50
2018-05-09T02:13:52.322Z,6.20
2018-05-09T02:16:19.892Z,6.17
2018-05-09T02:18:47.471Z,6.63
2018-05-09T02:21:15.098Z,6.33
2018-05-09T02:23:42.677Z,5.97
2018-05-09T02:26:10.258Z,6.20
2018-05-09T02:28:37.865Z,6.03
2018-05-09T02:31:05.548Z,6.60
2018-05-09T02:33:33.062Z,6.03
2018-05-09T02:36:00.662Z,6.93
2018-05-09T02:38:28.269Z,6.70
2018-05-09T02:40:56.619Z,6.10
2018-05-09T02:43:24.207Z,6.10
2018-05-09T02:45:52.538Z,6.50
2018-05-09T02:48:20.131Z,6.10
2018-05-09T02:50:47.685Z,6.30
2018-05-09T02:53:15.242Z,5.83
2018-05-09T02:55:42.855Z,6.60
2018-05-09T02:58:10.423Z,7.00
2018-05-09T03:00:38.027Z,6.17
2018-05-09T03:03:05.593Z,6.57
2018-05-09T03:05:33.177Z,6.60
2018-05-09T03:08:01.531Z,6.20
2018-05-09T03:10:29.124Z,6.57
2018-05-09T03:12:56.731Z,6.70
2018-05-09T03:15:24.306Z,6.43
2018-05-09T03:17:51.919Z,5.97
2018-05-09T03:20:19.535Z,7.17
2018-05-09T03:22:47.119Z,6.37
2018-05-09T03:25:14.726Z,6.77
2018-05-09T03:27:43.046Z,6.27
2018-05-09T03:30:10.642Z,7.23
2018-05-09T03:32:38.198Z,6.60
2018-05-09T03:35:05.757Z,6.23
2018-05-09T03:37:33.376Z,6.00
2018-05-09T03:40:00.981Z,6.90
2018-05-09T03:42:28.538Z,6.90
2018-05-09T03:44:56.914Z,6.00
2018-05-09T03:47:24.474Z,5.77
2018-05-09T03:49:52.034Z,5.80
2018-05-09T03:52:19.623Z,6.47
2018-05-09T03:54:48.007Z,6.00
2018-05-09T03:57:16.354Z,6.33
2018-05-09T03:59:44.531Z,5.63
2018-05-09T04:02:24.126Z,6.40
2018-05-09T04:05:03.552Z,6.40
2018-05-09T04:07:43.057Z,6.50
2018-05-09T04:10:10.642Z,6.20
2018-05-09T04:12:38.230Z,6.53
2018-05-09T04:15:05.838Z,6.50
2018-05-09T04:17:34.270Z,7.07
2018-05-09T04:20:01.878Z,6.70
2018-05-09T04:22:29.434Z,6.90
2018-05-09T04:24:57.023Z,7.27
2018-05-09T04:27:24.587Z,7.10
2018-05-09T04:29:52.175Z,6.30
2018-05-09T04:32:19.731Z,7.80
2018-05-09T04:34:47.291Z,8.17
2018-05-09T04:37:14.874Z,8.80
2018-05-09T04:39:43.260Z,8.20
2018-05-09T04:42:11.834Z,7.03
2018-05-09T04:44:40.156Z,6.73
2018-05-09T04:47:07.710Z,6.90
2018-05-09T04:49:35.295Z,6.73
2018-05-09T04:52:03.838Z,7.00
2018-05-09T04:54:32.218Z,6.87
2018-05-09T04:57:00.579Z,7.10
2018-05-09T04:59:28.162Z,7.40
2018-05-09T05:01:56.482Z,6.30
2018-05-09T05:04:24.090Z,6.37
2018-05-09T05:06:51.651Z,6.43
2018-05-09T05:09:19.264Z,6.80
2018-05-09T05:11:46.851Z,7.00
2018-05-09T05:14:14.466Z,7.70
2018-05-09T05:16:42.022Z,7.30
2018-05-09T05:19:09.578Z,6.57
2018-05-09T05:21:37.190Z,6.80
2018-05-09T05:24:04.761Z,6.77
2018-05-09T05:26:32.362Z,6.17
2018-05-09T05:29:00.108Z,7.13
2018-05-09T05:31:27.690Z,6.50
2018-05-09T05:33:55.299Z,7.17
2018-05-09T05:36:22.886Z,7.43
2018-05-09T05:38:50.507Z,7.77
2018-05-09T05:41:18.106Z,6.10
2018-05-09T05:43:45.730Z,6.90
2018-05-09T05:46:13.286Z,6.70
2018-05-09T05:48:40.930Z,7.40
2018-05-09T05:51:08.490Z,7.20
2018-05-09T05:53:36.074Z,7.40
2018-05-09T05:56:03.736Z,7.47
2018-05-09T05:58:31.301Z,7.33
2018-05-09T06:00:58.908Z,7.10
2018-05-09T06:03:27.262Z,6.80
2018-05-09T06:05:54.875Z,7.33
2018-05-09T06:08:22.433Z,7.23
2018-05-09T06:10:50.027Z,7.00
2018-05-09T06:13:17.588Z,7.10
2018-05-09T06:15:45.175Z,6.73
2018-05-09T06:18:12.762Z,7.50
2018-05-09T06:20:41.159Z,7.90
2018-05-09T06:23:08.770Z,7.00
2018-05-09T06:25:36.358Z,6.40
2018-05-09T06:28:04.706Z,6.40
2018-05-09T06:30:32.262Z,7.60
2018-05-09T06:32:59.874Z,6.50
2018-05-09T06:35:27.463Z,6.83
2018-05-09T06:37:55.058Z,7.33
2018-05-09T06:40:22.648Z,6.73
2018-05-09T06:42:51.019Z,7.40
2018-05-09T06:45:19.366Z,8.07
2018-05-09T06:47:46.935Z,7.03
2018-05-09T06:50:14.522Z,8.10
2018-05-09T06:52:42.854Z,6.63
2018-05-09T06:55:10.438Z,6.93
2018-05-09T06:57:38.004Z,7.10
2018-05-09T07:00:05.620Z,7.73
2018-05-09T07:02:33.186Z,8.40
2018-05-09T07:05:00.747Z,6.80
2018-05-09T07:07:28.358Z,7.40
2018-05-09T07:09:55.948Z,7.03
2018-05-09T07:12:23.506Z,6.60
2018-05-09T07:14:51.068Z,7.13
2018-05-09T07:17:18.682Z,6.77
2018-05-09T07:19:46.270Z,6.20
2018-05-09T07:22:14.675Z,6.20
2018-05-09T07:24:42.966Z,5.73
2018-05-09T07:27:10.559Z,5.40
2018-05-09T07:29:38.127Z,5.27
2018-05-09T07:32:05.694Z,4.73
2018-05-09T07:34:34.079Z,5.17
2018-05-09T07:37:01.692Z,5.30
2018-05-09T07:39:29.282Z,4.40
2018-05-09T07:41:56.874Z,4.00
2018-05-09T07:44:25.244Z,5.40
2018-05-09T07:46:52.822Z,4.77
2018-05-09T07:49:20.407Z,4.87
2018-05-09T07:51:47.998Z,5.17
2018-05-09T07:54:16.346Z,5.50
2018-05-09T07:56:43.947Z,4.77
2018-05-09T07:59:12.278Z,5.57
2018-05-09T08:01:40.657Z,5.67
2018-05-09T08:04:08.216Z,4.90
2018-05-09T08:06:35.837Z,5.53
2018-05-09T08:09:03.445Z,5.10
2018-05-09T08:11:31.142Z,4.97
2018-05-09T08:13:58.750Z,5.67
2018-05-09T08:16:27.103Z,4.70
2018-05-09T08:18:54.691Z,4.43
2018-05-09T08:21:23.051Z,4.30
2018-05-09T08:23:50.728Z,3.97
2018-05-09T08:26:18.278Z,4.03
2018-05-09T08:28:45.866Z,3.73
2018-05-09T08:31:14.249Z,4.23
2018-05-09T08:33:42.642Z,3.50
2018-05-09T08:36:10.254Z,3.90
2018-05-09T08:38:37.818Z,3.70
2018-05-09T08:41:05.439Z,4.20
2018-05-09T08:43:33.140Z,3.30
2018-05-09T08:46:00.666Z,4.07
2018-05-09T08:48:28.274Z,4.20
2018-05-09T08:50:55.858Z,3.90
2018-05-09T08:53:24.182Z,4.30
2018-05-09T08:55:51.885Z,4.17
2018-05-09T08:58:19.411Z,4.20
2018-05-09T09:00:47.022Z,4.27
2018-05-09T09:03:14.611Z,4.70
2018-05-09T09:05:42.262Z,5.13
2018-05-09T09:08:09.830Z,4.30
2018-05-09T09:10:37.443Z,3.77
2018-05-09T09:13:05.030Z,3.00
2018-05-09T09:15:32.635Z,4.80
2018-05-09T09:18:00.255Z,3.20
2018-05-09T09:20:27.839Z,3.37
2018-05-09T09:22:56.203Z,3.40
2018-05-09T09:25:23.802Z,3.10
2018-05-09T09:27:51.404Z,4.13
2018-05-09T09:30:19.062Z,2.87
2018-05-09T09:32:47.435Z,2.90
2018-05-09T09:35:15.002Z,3.00
2018-05-09T09:37:42.584Z,2.80
2018-05-09T09:40:10.174Z,2.83
2018-05-09T09:42:37.798Z,2.80
2018-05-09T09:45:05.426Z,3.17
2018-05-09T09:47:33.007Z,3.00
2018-05-09T09:50:00.580Z,2.73
2018-05-09T09:52:28.941Z,3.20
2018-05-09T09:54:56.503Z,3.40
2018-05-09T09:57:24.126Z,2.93
2018-05-09T09:59:51.721Z,3.50
2018-05-09T10:02:19.295Z,3.10
2018-05-09T10:04:46.949Z,2.80
2018-05-09T10:07:15.303Z,2.83
2018-05-09T10:09:42.992Z,2.53
2018-05-09T10:12:10.634Z,2.50
2018-05-09T10:14:38.277Z,2.70
2018-05-09T10:17:05.871Z,2.63
2018-05-09T10:19:34.259Z,3.20
2018-05-09T10:22:02.739Z,3.10
2018-05-09T10:24:31.367Z,3.40
2018-05-09T10:26:58.924Z,3.47
2018-05-09T10:29:26.490Z,2.40
2018-05-09T10:31:54.158Z,2.27
2018-05-09T10:34:21.763Z,2.60
2018-05-09T10:36:50.115Z,3.07
2018-05-09T10:39:17.735Z,2.77
2018-05-09T10:41:45.305Z,2.67
2018-05-09T10:44:12.862Z,3.37
2018-05-09T10:46:40.536Z,3.07
2018-05-09T10:49:08.135Z,2.43
2018-05-09T10:51:35.715Z,2.30
2018-05-09T10:54:04.200Z,2.13
2018-05-09T10:56:32.535Z,2.40
2018-05-09T10:59:00.948Z,2.30
2018-05-09T11:01:29.343Z,2.40
2018-05-09T11:03:56.925Z,2.43
2018-05-09T11:06:24.491Z,2.33
2018-05-09T11:08:52.092Z,2.63
2018-05-09T11:11:19.679Z,3.00
2018-05-09T11:13:47.321Z,2.60
2018-05-09T11:16:14.886Z,2.30
2018-05-09T11:18:42.495Z,2.27
2018-05-09T11:21:10.135Z,2.30
2018-05-09T11:23:37.694Z,2.80
2018-05-09T11:26:05.290Z,3.20
2018-05-09T11:28:32.887Z,2.20
2018-05-09T11:31:00.510Z,2.60
2018-05-09T11:33:28.127Z,2.93
2018-05-09T11:35:56.420Z,3.30
2018-05-09T11:38:24.075Z,3.07
2018-05-09T11:40:51.639Z,3.40
2018-05-09T11:43:19.207Z,2.80
2018-05-09T11:45:46.839Z,2.20
2018-05-09T11:48:14.403Z,3.23
2018-05-09T11:50:42.014Z,2.97
2018-05-09T11:53:09.608Z,3.30
2018-05-09T11:55:37.222Z,2.80
2018-05-09T11:58:04.876Z,2.90
2018-05-09T12:00:32.461Z,3.10
2018-05-09T12:03:00.027Z,2.70
2018-05-09T12:05:27.650Z,3.10
2018-05-09T12:07:55.235Z,2.40
2018-05-09T12:10:22.833Z,2.70
2018-05-09T12:12:51.205Z,2.77
2018-05-09T12:15:19.529Z,3.43
2018-05-09T12:17:47.118Z,3.13
2018-05-09T12:20:14.749Z,3.07
2018-05-09T12:22:42.318Z,3.67
2018-05-09T12:25:09.982Z,3.30
2018-05-09T12:27:37.578Z,2.83
2018-05-09T12:30:05.180Z,3.00
2018-05-09T12:32:32.834Z,3.17
2018-05-09T12:35:00.436Z,2.97
2018-05-09T12:37:28.032Z,2.43
2018-05-09T12:39:56.422Z,2.80
2018-05-09T12:42:24.788Z,2.37
2018-05-09T12:44:53.175Z,2.50
2018-05-09T12:47:21.503Z,2.27
2018-05-09T12:49:49.091Z,2.73
2018-05-09T12:52:16.739Z,2.70
2018-05-09T12:54:44.327Z,3.60
2018-05-09T12:57:12.687Z,2.80
2018-05-09T12:59:40.331Z,2.43
2018-05-09T13:02:07.894Z,2.10
2018-05-09T13:04:35.461Z,2.17
2018-05-09T13:07:03.075Z,2.60
2018-05-09T13:09:30.657Z,2.23
2018-05-09T13:11:58.252Z,2.37
2018-05-09T13:14:25.876Z,2.43
2018-05-09T13:16:54.363Z,2.77
2018-05-09T13:19:21.950Z,2.70
2018-05-09T13:21:49.580Z,2.80
2018-05-09T13:24:17.139Z,3.10
2018-05-09T13:26:44.734Z,2.30
2018-05-09T13:29:12.323Z,1.70
2018-05-09T13:31:40.761Z,1.90
2018-05-09T13:34:08.331Z,2.10
2018-05-09T13:36:35.930Z,2.47
2018-05-09T13:39:04.335Z,2.77
2018-05-09T13:41:31.934Z,3.10
2018-05-09T13:43:59.500Z,2.60
2018-05-09T13:46:27.130Z,2.40
2018-05-09T13:48:54.735Z,2.50
2018-05-09T13:51:25.872Z,3.00
2018-05-09T13:53:53.520Z,2.93
2018-05-09T13:56:21.086Z,3.10
2018-05-09T13:58:48.675Z,2.90
2018-05-09T14:01:16.299Z,2.53
2018-05-09T14:03:43.941Z,2.70
2018-05-09T14:06:11.547Z,2.60
2018-05-09T14:08:39.139Z,2.60
2018-05-09T14:11:07.471Z,2.70
2018-05-09T14:13:35.103Z,2.90
2018-05-09T14:16:02.694Z,3.00
2018-05-09T14:18:30.259Z,2.90
2018-05-09T14:20:57.905Z,3.03
2018-05-09T14:23:25.492Z,2.83
2018-05-09T14:25:53.051Z,3.23
2018-05-09T14:28:20.679Z,2.87
2018-05-09T14:30:48.262Z,3.10
2018-05-09T14:33:15.824Z,2.70
2018-05-09T14:35:43.454Z,2.90
2018-05-09T14:38:11.038Z,3.33
2018-05-09T14:40:38.620Z,3.00
2018-05-09T14:43:06.255Z,3.30
2018-05-09T14:45:33.839Z,3.27
2018-05-09T14:48:01.414Z,3.03
2018-05-09T14:50:29.799Z,2.40
2018-05-09T14:52:58.150Z,2.90
2018-05-09T14:55:25.714Z,2.60
2018-05-09T14:57:53.435Z,2.50
2018-05-09T15:00:21.049Z,2.80
2018-05-09T15:02:48.587Z,3.20
2018-05-09T15:05:16.203Z,3.20
2018-05-09T15:07:43.797Z,3.00
2018-05-09T15:10:11.399Z,2.60
2018-05-09T15:12:39.022Z,2.70
2018-05-09T15:15:06.612Z,2.90
2018-05-09T15:17:34.269Z,3.12
2018-05-09T15:20:01.863Z,3.00
2018-05-09T15:22:29.447Z,3.20
2018-05-09T15:24:57.114Z,2.40
2018-05-09T15:27:24.704Z,2.70
2018-05-09T15:29:53.026Z,3.20
2018-05-09T15:32:20.679Z,2.80
2018-05-09T15:34:48.266Z,2.47
2018-05-09T15:37:15.863Z,2.70
2018-05-09T15:39:44.251Z,1.90
2018-05-09T15:42:12.607Z,2.07
2018-05-09T15:44:40.982Z,2.30
2018-05-09T15:47:09.366Z,2.90
2018-05-09T15:49:37.695Z,2.77
2018-05-09T15:52:05.401Z,2.77
2018-05-09T15:54:33.754Z,2.53
2018-05-09T15:57:01.414Z,3.10
2018-05-09T15:59:29.068Z,2.80
2018-05-09T16:01:57.483Z,3.67
2018-05-09T16:04:25.054Z,3.10
2018-05-09T16:06:52.660Z,3.50
2018-05-09T16:09:20.219Z,3.30
2018-05-09T16:11:47.861Z,3.00
2018-05-09T16:14:16.206Z,3.20
2018-05-09T16:16:43.770Z,3.33
2018-05-09T16:19:11.408Z,2.93
2018-05-09T16:21:38.993Z,3.10
2018-05-09T16:24:06.579Z,2.70
2018-05-09T16:26:34.966Z,2.50
2018-05-09T16:29:03.295Z,2.60
2018-05-09T16:31:30.919Z,2.87
2018-05-09T16:33:58.502Z,2.83
2018-05-09T16:36:26.093Z,3.07
2018-05-09T16:38:53.787Z,2.57
2018-05-09T16:41:22.137Z,2.93
2018-05-09T16:43:49.698Z,2.53
2018-05-09T16:46:17.346Z,3.10
2018-05-09T16:48:44.930Z,2.80
2018-05-09T16:51:12.545Z,2.80
2018-05-09T16:53:40.165Z,3.10
2018-05-09T16:56:07.743Z,2.93
2018-05-09T16:58:35.302Z,3.20
2018-05-09T17:01:02.938Z,3.10
2018-05-09T17:03:30.534Z,3.03
2018-05-09T17:05:58.891Z,2.87
2018-05-09T17:08:26.615Z,3.03
2018-05-09T17:10:54.174Z,2.77
2018-05-09T17:13:21.732Z,2.73
2018-05-09T17:15:49.370Z,2.70
2018-05-09T17:18:17.039Z,2.43
2018-05-09T17:20:44.634Z,2.30
2018-05-09T17:23:12.270Z,2.77
2018-05-09T17:25:39.836Z,3.17
2018-05-09T17:28:07.483Z,2.50
2018-05-09T17:30:35.148Z,2.53
2018-05-09T17:33:02.762Z,2.17
2018-05-09T17:35:30.366Z,2.77
2018-05-09T17:37:58.010Z,2.43
2018-05-09T17:40:25.598Z,2.60
2018-05-09T17:42:53.167Z,2.40
2018-05-09T17:45:20.834Z,2.10
2018-05-09T17:47:48.401Z,2.43
2018-05-09T17:50:15.998Z,2.53
2018-05-09T17:52:43.639Z,2.63
2018-05-09T17:55:11.234Z,2.73
2018-05-09T17:57:38.822Z,2.70
2018-05-09T18:00:07.266Z,2.87
2018-05-09T18:02:38.987Z,2.87
2018-05-09T18:05:06.571Z,2.83
2018-05-09T18:07:34.162Z,3.30
2018-05-09T18:10:01.753Z,3.80
2018-05-09T18:12:29.347Z,4.27
2018-05-09T18:14:57.699Z,3.63
2018-05-09T18:17:25.311Z,3.80
2018-05-09T18:19:52.938Z,3.80
2018-05-09T18:22:31.011Z,5.10
2018-05-09T18:25:00.602Z,5.07
2018-05-09T18:27:32.635Z,4.80
2018-05-09T18:30:00.213Z,4.73
2018-05-09T18:32:27.910Z,4.50
2018-05-09T18:34:55.503Z,4.10
2018-05-09T18:37:23.119Z,4.27
2018-05-09T18:39:51.034Z,4.27
2018-05-09T18:42:18.586Z,4.00
2018-05-09T18:44:46.231Z,5.33
2018-05-09T18:47:13.807Z,5.03
2018-05-09T18:49:41.394Z,4.63
2018-05-09T18:52:08.961Z,5.50
2018-05-09T18:54:37.319Z,4.53
2018-05-09T18:57:04.884Z,5.00
2018-05-09T18:59:32.511Z,4.63
2018-05-09T19:02:00.101Z,4.80
2018-05-09T19:04:27.695Z,4.47
2018-05-09T19:06:56.024Z,4.50
2018-05-09T19:09:23.614Z,4.37
2018-05-09T19:11:51.222Z,4.33
2018-05-09T19:14:18.792Z,4.83
2018-05-09T19:16:46.410Z,4.70
2018-05-09T19:19:13.975Z,4.73
2018-05-09T19:21:41.558Z,4.87
2018-05-09T19:24:09.116Z,5.83
2018-05-09T19:26:36.998Z,5.10
2018-05-09T19:29:04.578Z,4.73
2018-05-09T19:31:32.203Z,4.77
2018-05-09T19:33:59.791Z,5.27
2018-05-09T19:36:27.363Z,5.43
2018-05-09T19:38:55.753Z,5.17
2018-05-09T19:41:23.310Z,4.50
2018-05-09T19:43:50.931Z,4.97
2018-05-09T19:46:18.487Z,6.23
2018-05-09T19:48:46.075Z,6.60
2018-05-09T19:51:13.655Z,5.87
2018-05-09T19:53:41.354Z,5.90
2018-05-09T19:56:08.974Z,6.63
2018-05-09T19:58:37.331Z,7.20
2018-05-09T20:01:05.697Z,6.73
2018-05-09T20:03:33.263Z,6.30
2018-05-09T20:06:00.873Z,5.90
2018-05-09T20:08:28.469Z,4.87
2018-05-09T20:10:56.082Z,4.10
2018-05-09T20:13:23.679Z,5.37
2018-05-09T20:15:51.294Z,5.03
2018-05-09T20:18:19.642Z,5.40
2018-05-09T20:20:47.251Z,5.60
2018-05-09T20:23:14.838Z,5.70
2018-05-09T20:25:42.419Z,6.53
2018-05-09T20:28:10.031Z,5.77
2018-05-09T20:30:43.194Z,5.80
2018-05-09T20:33:10.818Z,6.00
2018-05-09T20:35:38.406Z,6.07
2018-05-09T20:38:06.210Z,5.30
2018-05-09T20:40:33.830Z,5.40
2018-05-09T20:43:01.386Z,4.83
2018-05-09T20:45:33.274Z,5.77
2018-05-09T20:48:00.830Z,6.10
2018-05-09T20:50:28.410Z,6.30
2018-05-09T20:52:56.027Z,5.50
2018-05-09T20:55:29.670Z,6.17
2018-05-09T20:57:57.235Z,5.57
2018-05-09T21:00:24.823Z,5.90
2018-05-09T21:02:53.189Z,6.17
2018-05-09T21:05:20.774Z,5.60
2018-05-09T21:07:56.153Z,6.20
2018-05-09T21:10:23.741Z,5.60
2018-05-09T21:12:51.327Z,4.70
2018-05-09T21:15:19.710Z,5.40
2018-05-09T21:17:48.053Z,5.40
2018-05-09T21:20:15.780Z,5.77
2018-05-09T21:22:44.034Z,5.60
2018-05-09T21:25:11.594Z,5.37
2018-05-09T21:27:39.240Z,5.40
2018-05-09T21:30:07.561Z,5.90
2018-05-09T21:32:35.147Z,5.70
2018-05-09T21:35:02.703Z,5.70
2018-05-09T21:37:30.346Z,5.90
2018-05-09T21:39:57.909Z,5.40
2018-05-09T21:42:25.471Z,5.47
2018-05-09T21:44:53.086Z,5.80
2018-05-09T21:47:20.674Z,4.93
2018-05-09T21:49:48.283Z,5.17
2018-05-09T21:52:15.899Z,5.43
2018-05-09T21:54:43.487Z,5.67
2018-05-09T21:57:11.070Z,5.13
2018-05-09T21:59:38.679Z,6.30
2018-05-09T22:02:06.245Z,6.10
2018-05-09T22:04:33.850Z,5.57
2018-05-09T22:07:01.411Z,6.00
2018-05-09T22:09:28.994Z,5.70
2018-05-09T22:11:56.558Z,6.30
2018-05-09T22:14:24.141Z,5.37
2018-05-09T22:16:52.475Z,5.70
2018-05-09T22:19:20.065Z,5.30
2018-05-09T22:21:48.434Z,5.50
2018-05-09T22:24:16.023Z,6.13
2018-05-09T22:26:44.398Z,4.80
2018-05-09T22:29:12.742Z,5.63
2018-05-09T22:31:40.350Z,4.90
2018-05-09T22:34:07.947Z,5.23
2018-05-09T22:36:36.303Z,5.57
2018-05-09T22:39:03.868Z,4.93
2018-05-09T22:41:32.221Z,4.80
2018-05-09T22:43:59.778Z,5.63
2018-05-09T22:46:27.358Z,5.40
2018-05-09T22:48:54.997Z,5.57
2018-05-09T22:51:23.717Z,5.73
2018-05-09T22:53:52.043Z,5.70
2018-05-09T22:56:19.625Z,6.07
2018-05-09T22:58:47.210Z,6.80
2018-05-09T23:01:14.835Z,7.00
2018-05-09T23:03:42.422Z,7.00
2018-05-09T23:06:10.041Z,7.13
2018-05-09T23:08:37.650Z,6.00
2018-05-09T23:11:05.216Z,6.50
2018-05-09T23:13:32.802Z,6.13
2018-05-09T23:16:01.266Z,6.80
2018-05-09T23:18:29.618Z,6.27
2018-05-09T23:20:57.218Z,8.10
2018-05-09T23:23:25.542Z,6.80
2018-05-09T23:25:53.099Z,6.80
2018-05-09T23:28:20.694Z,7.00
2018-05-09T23:30:48.278Z,6.33
2018-05-09T23:33:16.614Z,7.87
2018-05-09T23:35:44.209Z,6.80
2018-05-09T23:38:12.562Z,7.63
2018-05-09T23:40:40.208Z,7.50
2018-05-09T23:43:08.511Z,7.40
2018-05-09T23:45:36.070Z,7.13
2018-05-09T23:48:03.656Z,7.23
2018-05-09T23:50:31.242Z,8.23
2018-05-09T23:52:58.871Z,7.63
2018-05-09T23:55:26.453Z,7.17
2018-05-09T23:57:54.038Z,7.33
